sensor_id;sensor_type;location;lat;lon;timestamp;P1;durP1;ratioP1;P2;durP2;ratioP2
37535;SDS011;23379;51.554;6.736;2024-01-10T00:01:12;13.18;;;5.72;;
37535;SDS011;23379;51.554;6.736;2024-01-10T00:03:37;8.77;;;5.43;;
37535;SDS011;23379;51.554;6.736;2024-01-10T00:06:02;9.52;;;5.47;;
37535;SDS011;23379;51.554;6.736;2024-01-10T00:08:28;7.60;;;4.88;;
37535;SDS011;23379;51.554;6.736;2024-01-10T00:10:53;8.60;;;5.22;;
37535;SDS011;23379;51.554;6.736;2024-01-10T00:13:19;15.98;;;5.80;;
37535;SDS011;23379;51.554;6.736;2024-01-10T00:15:46;10.85;;;5.88;;
37535;SDS011;23379;51.554;6.736;2024-01-10T00:18:12;12.02;;;5.65;;
37535;SDS011;23379;51.554;6.736;2024-01-10T00:20:37;9.05;;;5.07;;
37535;SDS011;23379;51.554;6.736;2024-01-10T00:23:02;9.27;;;5.22;;
37535;SDS011;23379;51.554;6.736;2024-01-10T00:25:28;15.13;;;5.60;;
37535;SDS011;23379;51.554;6.736;2024-01-10T00:27:54;11.98;;;5.25;;
37535;SDS011;23379;51.554;6.736;2024-01-10T00:30:19;15.88;;;5.53;;
37535;SDS011;23379;51.554;6.736;2024-01-10T00:32:45;9.10;;;5.18;;
37535;SDS011;23379;51.554;6.736;2024-01-10T00:35:10;12.68;;;6.00;;
37535;SDS011;23379;51.554;6.736;2024-01-10T00:37:36;12.35;;;5.70;;
37535;SDS011;23379;51.554;6.736;2024-01-10T00:40:01;7.72;;;5.07;;
37535;SDS011;23379;51.554;6.736;2024-01-10T00:42:27;9.60;;;5.60;;
37535;SDS011;23379;51.554;6.736;2024-01-10T00:44:52;12.68;;;5.45;;
37535;SDS011;23379;51.554;6.736;2024-01-10T00:47:17;8.70;;;5.47;;
37535;SDS011;23379;51.554;6.736;2024-01-10T00:49:43;14.55;;;5.45;;
37535;SDS011;23379;51.554;6.736;2024-01-10T00:52:08;9.63;;;5.47;;
37535;SDS011;23379;51.554;6.736;2024-01-10T00:54:33;9.10;;;5.63;;
37535;SDS011;23379;51.554;6.736;2024-01-10T00:56:59;12.02;;;5.70;;
37535;SDS011;23379;51.554;6.736;2024-01-10T00:59:24;11.82;;;5.25;;
37535;SDS011;23379;51.554;6.736;2024-01-10T01:01:49;8.85;;;5.10;;
37535;SDS011;23379;51.554;6.736;2024-01-10T01:04:15;11.82;;;5.68;;
37535;SDS011;23379;51.554;6.736;2024-01-10T01:06:40;9.45;;;5.28;;
37535;SDS011;23379;51.554;6.736;2024-01-10T01:09:05;8.52;;;4.85;;
37535;SDS011;23379;51.554;6.736;2024-01-10T01:11:31;9.35;;;5.32;;
37535;SDS011;23379;51.554;6.736;2024-01-10T01:13:56;11.63;;;4.75;;
37535;SDS011;23379;51.554;6.736;2024-01-10T01:16:21;11.63;;;5.50;;
37535;SDS011;23379;51.554;6.736;2024-01-10T01:18:47;9.95;;;5.45;;
37535;SDS011;23379;51.554;6.736;2024-01-10T01:21:12;10.02;;;5.18;;
37535;SDS011;23379;51.554;6.736;2024-01-10T01:23:37;10.25;;;5.25;;
37535;SDS011;23379;51.554;6.736;2024-01-10T01:26:03;6.75;;;4.63;;
37535;SDS011;23379;51.554;6.736;2024-01-10T01:28:29;10.50;;;5.07;;
37535;SDS011;23379;51.554;6.736;2024-01-10T01:30:55;13.45;;;5.63;;
37535;SDS011;23379;51.554;6.736;2024-01-10T01:33:20;7.97;;;5.43;;
37535;SDS011;23379;51.554;6.736;2024-01-10T01:35:46;11.60;;;5.80;;
37535;SDS011;23379;51.554;6.736;2024-01-10T01:38:11;12.52;;;5.40;;
37535;SDS011;23379;51.554;6.736;2024-01-10T01:40:37;13.02;;;5.88;;
37535;SDS011;23379;51.554;6.736;2024-01-10T01:43:16;9.45;;;5.38;;
37535;SDS011;23379;51.554;6.736;2024-01-10T01:45:43;14.82;;;6.10;;
37535;SDS011;23379;51.554;6.736;2024-01-10T01:48:08;11.05;;;5.18;;
37535;SDS011;23379;51.554;6.736;2024-01-10T01:50:34;10.65;;;5.50;;
37535;SDS011;23379;51.554;6.736;2024-01-10T01:52:59;10.18;;;6.00;;
37535;SDS011;23379;51.554;6.736;2024-01-10T01:55:25;9.95;;;5.57;;
37535;SDS011;23379;51.554;6.736;2024-01-10T01:57:50;13.52;;;4.95;;
37535;SDS011;23379;51.554;6.736;2024-01-10T02:00:15;12.13;;;5.50;;
37535;SDS011;23379;51.554;6.736;2024-01-10T02:02:42;14.57;;;5.97;;
37535;SDS011;23379;51.554;6.736;2024-01-10T02:05:08;12.20;;;6.13;;
37535;SDS011;23379;51.554;6.736;2024-01-10T02:07:34;10.77;;;5.50;;
37535;SDS011;23379;51.554;6.736;2024-01-10T02:09:59;8.60;;;5.70;;
37535;SDS011;23379;51.554;6.736;2024-01-10T02:12:25;10.25;;;4.90;;
37535;SDS011;23379;51.554;6.736;2024-01-10T02:14:50;9.57;;;5.30;;
37535;SDS011;23379;51.554;6.736;2024-01-10T02:17:16;13.48;;;5.53;;
37535;SDS011;23379;51.554;6.736;2024-01-10T02:19:42;9.85;;;6.15;;
37535;SDS011;23379;51.554;6.736;2024-01-10T02:22:07;11.32;;;5.65;;
37535;SDS011;23379;51.554;6.736;2024-01-10T02:24:33;11.55;;;5.50;;
37535;SDS011;23379;51.554;6.736;2024-01-10T02:26:58;8.27;;;5.13;;
37535;SDS011;23379;51.554;6.736;2024-01-10T02:29:23;10.60;;;5.82;;
37535;SDS011;23379;51.554;6.736;2024-01-10T02:31:49;9.75;;;5.28;;
37535;SDS011;23379;51.554;6.736;2024-01-10T02:34:14;14.45;;;5.65;;
37535;SDS011;23379;51.554;6.736;2024-01-10T02:36:39;9.02;;;5.38;;
37535;SDS011;23379;51.554;6.736;2024-01-10T02:39:05;8.80;;;5.28;;
37535;SDS011;23379;51.554;6.736;2024-01-10T02:41:30;10.68;;;5.57;;
37535;SDS011;23379;51.554;6.736;2024-01-10T02:43:56;9.07;;;5.32;;
37535;SDS011;23379;51.554;6.736;2024-01-10T02:46:23;10.10;;;5.68;;
37535;SDS011;23379;51.554;6.736;2024-01-10T02:48:52;11.40;;;5.15;;
37535;SDS011;23379;51.554;6.736;2024-01-10T02:51:18;11.35;;;5.80;;
37535;SDS011;23379;51.554;6.736;2024-01-10T02:53:43;16.77;;;6.07;;
37535;SDS011;23379;51.554;6.736;2024-01-10T02:56:09;11.90;;;5.30;;
37535;SDS011;23379;51.554;6.736;2024-01-10T02:58:34;10.40;;;5.68;;
37535;SDS011;23379;51.554;6.736;2024-01-10T03:00:59;10.98;;;5.25;;
37535;SDS011;23379;51.554;6.736;2024-01-10T03:03:26;11.05;;;5.53;;
37535;SDS011;23379;51.554;6.736;2024-01-10T03:05:51;12.65;;;6.20;;
37535;SDS011;23379;51.554;6.736;2024-01-10T03:08:17;8.85;;;5.10;;
37535;SDS011;23379;51.554;6.736;2024-01-10T03:10:42;10.18;;;5.40;;
37535;SDS011;23379;51.554;6.736;2024-01-10T03:13:07;9.68;;;5.65;;
37535;SDS011;23379;51.554;6.736;2024-01-10T03:15:33;11.13;;;5.55;;
37535;SDS011;23379;51.554;6.736;2024-01-10T03:17:58;13.18;;;6.00;;
37535;SDS011;23379;51.554;6.736;2024-01-10T03:20:23;11.35;;;5.68;;
37535;SDS011;23379;51.554;6.736;2024-01-10T03:22:49;11.10;;;5.80;;
37535;SDS011;23379;51.554;6.736;2024-01-10T03:25:14;11.45;;;5.93;;
37535;SDS011;23379;51.554;6.736;2024-01-10T03:27:39;14.18;;;5.80;;
37535;SDS011;23379;51.554;6.736;2024-01-10T03:30:05;13.50;;;6.57;;
37535;SDS011;23379;51.554;6.736;2024-01-10T03:32:31;11.52;;;5.63;;
37535;SDS011;23379;51.554;6.736;2024-01-10T03:34:57;7.72;;;5.35;;
37535;SDS011;23379;51.554;6.736;2024-01-10T03:37:22;8.55;;;5.07;;
37535;SDS011;23379;51.554;6.736;2024-01-10T03:39:47;15.45;;;6.53;;
37535;SDS011;23379;51.554;6.736;2024-01-10T03:42:13;11.45;;;5.72;;
37535;SDS011;23379;51.554;6.736;2024-01-10T03:44:40;12.98;;;5.68;;
37535;SDS011;23379;51.554;6.736;2024-01-10T03:47:05;8.75;;;5.43;;
37535;SDS011;23379;51.554;6.736;2024-01-10T03:49:31;12.57;;;5.80;;
37535;SDS011;23379;51.554;6.736;2024-01-10T03:51:56;13.07;;;6.00;;
37535;SDS011;23379;51.554;6.736;2024-01-10T03:54:21;11.77;;;6.40;;
37535;SDS011;23379;51.554;6.736;2024-01-10T03:56:47;7.40;;;5.72;;
37535;SDS011;23379;51.554;6.736;2024-01-10T03:59:12;14.57;;;6.28;;
37535;SDS011;23379;51.554;6.736;2024-01-10T04:01:37;9.75;;;5.85;;
37535;SDS011;23379;51.554;6.736;2024-01-10T04:04:04;10.73;;;6.10;;
37535;SDS011;23379;51.554;6.736;2024-01-10T04:06:29;9.75;;;5.78;;
37535;SDS011;23379;51.554;6.736;2024-01-10T04:08:55;13.00;;;6.30;;
37535;SDS011;23379;51.554;6.736;2024-01-10T04:11:20;10.73;;;6.40;;
37535;SDS011;23379;51.554;6.736;2024-01-10T04:13:45;15.32;;;6.78;;
37535;SDS011;23379;51.554;6.736;2024-01-10T04:16:11;11.10;;;6.22;;
37535;SDS011;23379;51.554;6.736;2024-01-10T04:18:36;14.10;;;6.50;;
37535;SDS011;23379;51.554;6.736;2024-01-10T04:21:02;12.43;;;6.00;;
37535;SDS011;23379;51.554;6.736;2024-01-10T04:23:27;13.82;;;6.57;;
37535;SDS011;23379;51.554;6.736;2024-01-10T04:25:53;11.82;;;6.22;;
37535;SDS011;23379;51.554;6.736;2024-01-10T04:28:19;14.77;;;6.88;;
37535;SDS011;23379;51.554;6.736;2024-01-10T04:30:44;11.55;;;6.47;;
37535;SDS011;23379;51.554;6.736;2024-01-10T04:33:09;11.15;;;5.72;;
37535;SDS011;23379;51.554;6.736;2024-01-10T04:35:35;13.30;;;6.30;;
37535;SDS011;23379;51.554;6.736;2024-01-10T04:38:00;19.42;;;6.28;;
37535;SDS011;23379;51.554;6.736;2024-01-10T04:40:26;14.05;;;6.85;;
37535;SDS011;23379;51.554;6.736;2024-01-10T04:42:51;17.52;;;7.03;;
37535;SDS011;23379;51.554;6.736;2024-01-10T04:45:16;11.50;;;6.22;;
37535;SDS011;23379;51.554;6.736;2024-01-10T04:47:42;16.48;;;6.53;;
37535;SDS011;23379;51.554;6.736;2024-01-10T04:50:10;12.85;;;6.85;;
37535;SDS011;23379;51.554;6.736;2024-01-10T04:52:35;28.63;;;10.93;;
37535;SDS011;23379;51.554;6.736;2024-01-10T04:55:00;55.83;;;22.35;;
37535;SDS011;23379;51.554;6.736;2024-01-10T04:57:27;11.65;;;7.78;;
37535;SDS011;23379;51.554;6.736;2024-01-10T04:59:53;21.23;;;8.68;;
37535;SDS011;23379;51.554;6.736;2024-01-10T05:02:18;18.77;;;7.70;;
37535;SDS011;23379;51.554;6.736;2024-01-10T05:04:44;14.98;;;7.40;;
37535;SDS011;23379;51.554;6.736;2024-01-10T05:07:10;12.80;;;6.57;;
37535;SDS011;23379;51.554;6.736;2024-01-10T05:09:36;13.88;;;7.25;;
37535;SDS011;23379;51.554;6.736;2024-01-10T05:12:01;13.60;;;7.05;;
37535;SDS011;23379;51.554;6.736;2024-01-10T05:14:27;10.98;;;6.55;;
37535;SDS011;23379;51.554;6.736;2024-01-10T05:16:52;12.18;;;6.00;;
37535;SDS011;23379;51.554;6.736;2024-01-10T05:19:18;12.75;;;6.80;;
37535;SDS011;23379;51.554;6.736;2024-01-10T05:21:43;10.38;;;6.32;;
37535;SDS011;23379;51.554;6.736;2024-01-10T05:24:09;12.45;;;7.00;;
37535;SDS011;23379;51.554;6.736;2024-01-10T05:26:34;8.98;;;6.38;;
37535;SDS011;23379;51.554;6.736;2024-01-10T05:29:00;10.95;;;6.47;;
37535;SDS011;23379;51.554;6.736;2024-01-10T05:31:26;9.65;;;6.32;;
37535;SDS011;23379;51.554;6.736;2024-01-10T05:33:51;11.05;;;6.38;;
37535;SDS011;23379;51.554;6.736;2024-01-10T05:36:18;12.65;;;5.57;;
37535;SDS011;23379;51.554;6.736;2024-01-10T05:38:47;12.45;;;6.30;;
37535;SDS011;23379;51.554;6.736;2024-01-10T05:41:12;13.65;;;6.38;;
37535;SDS011;23379;51.554;6.736;2024-01-10T05:43:39;15.95;;;7.85;;
37535;SDS011;23379;51.554;6.736;2024-01-10T05:46:04;13.38;;;7.90;;
37535;SDS011;23379;51.554;6.736;2024-01-10T05:48:30;12.60;;;6.35;;
37535;SDS011;23379;51.554;6.736;2024-01-10T05:50:55;12.77;;;6.50;;
37535;SDS011;23379;51.554;6.736;2024-01-10T05:53:21;14.10;;;7.18;;
37535;SDS011;23379;51.554;6.736;2024-01-10T05:55:47;12.23;;;6.50;;
37535;SDS011;23379;51.554;6.736;2024-01-10T05:58:13;16.85;;;8.13;;
37535;SDS011;23379;51.554;6.736;2024-01-10T06:00:38;17.90;;;7.30;;
37535;SDS011;23379;51.554;6.736;2024-01-10T06:03:04;12.95;;;6.20;;
37535;SDS011;23379;51.554;6.736;2024-01-10T06:05:29;15.45;;;7.28;;
37535;SDS011;23379;51.554;6.736;2024-01-10T06:07:56;13.88;;;6.97;;
37535;SDS011;23379;51.554;6.736;2024-01-10T06:10:22;13.10;;;6.40;;
37535;SDS011;23379;51.554;6.736;2024-01-10T06:12:47;14.60;;;6.70;;
37535;SDS011;23379;51.554;6.736;2024-01-10T06:15:13;20.63;;;7.60;;
37535;SDS011;23379;51.554;6.736;2024-01-10T06:17:39;22.73;;;9.43;;
37535;SDS011;23379;51.554;6.736;2024-01-10T06:20:04;15.43;;;7.45;;
37535;SDS011;23379;51.554;6.736;2024-01-10T06:22:31;13.35;;;7.60;;
37535;SDS011;23379;51.554;6.736;2024-01-10T06:24:57;14.00;;;7.40;;
37535;SDS011;23379;51.554;6.736;2024-01-10T06:27:22;18.27;;;7.55;;
37535;SDS011;23379;51.554;6.736;2024-01-10T06:29:48;15.60;;;7.18;;
37535;SDS011;23379;51.554;6.736;2024-01-10T06:32:13;11.80;;;7.18;;
37535;SDS011;23379;51.554;6.736;2024-01-10T06:34:39;17.23;;;7.90;;
37535;SDS011;23379;51.554;6.736;2024-01-10T06:37:05;16.17;;;7.00;;
37535;SDS011;23379;51.554;6.736;2024-01-10T06:39:32;10.50;;;6.85;;
37535;SDS011;23379;51.554;6.736;2024-01-10T06:41:58;11.77;;;5.97;;
37535;SDS011;23379;51.554;6.736;2024-01-10T06:44:23;16.10;;;6.78;;
37535;SDS011;23379;51.554;6.736;2024-01-10T06:46:49;15.35;;;6.95;;
37535;SDS011;23379;51.554;6.736;2024-01-10T06:49:14;22.08;;;8.93;;
37535;SDS011;23379;51.554;6.736;2024-01-10T06:51:40;17.25;;;7.30;;
37535;SDS011;23379;51.554;6.736;2024-01-10T06:54:05;11.95;;;7.70;;
37535;SDS011;23379;51.554;6.736;2024-01-10T06:56:31;15.35;;;7.60;;
37535;SDS011;23379;51.554;6.736;2024-01-10T06:58:57;15.40;;;7.05;;
37535;SDS011;23379;51.554;6.736;2024-01-10T07:01:23;16.27;;;6.93;;
37535;SDS011;23379;51.554;6.736;2024-01-10T07:03:49;13.25;;;7.28;;
37535;SDS011;23379;51.554;6.736;2024-01-10T07:06:15;17.80;;;7.25;;
37535;SDS011;23379;51.554;6.736;2024-01-10T07:08:41;47.10;;;15.93;;
37535;SDS011;23379;51.554;6.736;2024-01-10T07:11:12;30.75;;;13.35;;
37535;SDS011;23379;51.554;6.736;2024-01-10T07:13:38;14.70;;;8.00;;
37535;SDS011;23379;51.554;6.736;2024-01-10T07:16:03;20.50;;;7.80;;
37535;SDS011;23379;51.554;6.736;2024-01-10T07:18:29;19.83;;;8.05;;
37535;SDS011;23379;51.554;6.736;2024-01-10T07:20:55;18.83;;;8.38;;
37535;SDS011;23379;51.554;6.736;2024-01-10T07:23:21;20.20;;;7.88;;
37535;SDS011;23379;51.554;6.736;2024-01-10T07:25:47;19.90;;;8.07;;
37535;SDS011;23379;51.554;6.736;2024-01-10T07:28:13;16.00;;;7.75;;
37535;SDS011;23379;51.554;6.736;2024-01-10T07:30:39;17.42;;;8.20;;
37535;SDS011;23379;51.554;6.736;2024-01-10T07:33:04;15.35;;;7.97;;
37535;SDS011;23379;51.554;6.736;2024-01-10T07:35:29;18.67;;;7.95;;
37535;SDS011;23379;51.554;6.736;2024-01-10T07:37:55;24.70;;;8.70;;
37535;SDS011;23379;51.554;6.736;2024-01-10T07:40:20;20.10;;;7.95;;
37535;SDS011;23379;51.554;6.736;2024-01-10T07:42:47;19.00;;;9.07;;
37535;SDS011;23379;51.554;6.736;2024-01-10T07:45:13;19.77;;;9.10;;
37535;SDS011;23379;51.554;6.736;2024-01-10T07:47:38;14.68;;;8.57;;
37535;SDS011;23379;51.554;6.736;2024-01-10T07:50:07;16.67;;;8.90;;
37535;SDS011;23379;51.554;6.736;2024-01-10T07:52:34;28.17;;;8.52;;
37535;SDS011;23379;51.554;6.736;2024-01-10T07:55:00;19.30;;;7.65;;
37535;SDS011;23379;51.554;6.736;2024-01-10T07:57:26;18.52;;;8.80;;
37535;SDS011;23379;51.554;6.736;2024-01-10T07:59:52;17.02;;;8.10;;
37535;SDS011;23379;51.554;6.736;2024-01-10T08:02:17;19.52;;;7.80;;
37535;SDS011;23379;51.554;6.736;2024-01-10T08:04:43;17.30;;;8.88;;
37535;SDS011;23379;51.554;6.736;2024-01-10T08:07:08;17.35;;;8.75;;
37535;SDS011;23379;51.554;6.736;2024-01-10T08:09:34;29.08;;;11.60;;
37535;SDS011;23379;51.554;6.736;2024-01-10T08:12:01;22.90;;;10.23;;
37535;SDS011;23379;51.554;6.736;2024-01-10T08:14:27;19.83;;;8.07;;
37535;SDS011;23379;51.554;6.736;2024-01-10T08:16:52;26.10;;;10.05;;
37535;SDS011;23379;51.554;6.736;2024-01-10T08:19:19;23.73;;;10.05;;
37535;SDS011;23379;51.554;6.736;2024-01-10T08:21:45;26.33;;;11.52;;
37535;SDS011;23379;51.554;6.736;2024-01-10T08:24:10;26.92;;;10.35;;
37535;SDS011;23379;51.554;6.736;2024-01-10T08:26:35;39.85;;;13.82;;
37535;SDS011;23379;51.554;6.736;2024-01-10T08:29:02;38.83;;;14.95;;
37535;SDS011;23379;51.554;6.736;2024-01-10T08:31:28;18.67;;;8.90;;
37535;SDS011;23379;51.554;6.736;2024-01-10T08:33:54;20.17;;;8.18;;
37535;SDS011;23379;51.554;6.736;2024-01-10T08:36:19;13.25;;;7.30;;
37535;SDS011;23379;51.554;6.736;2024-01-10T08:38:45;16.38;;;8.77;;
37535;SDS011;23379;51.554;6.736;2024-01-10T08:41:11;21.52;;;8.93;;
37535;SDS011;23379;51.554;6.736;2024-01-10T08:43:40;17.17;;;9.10;;
37535;SDS011;23379;51.554;6.736;2024-01-10T08:46:06;17.27;;;8.13;;
37535;SDS011;23379;51.554;6.736;2024-01-10T08:48:33;32.80;;;14.93;;
37535;SDS011;23379;51.554;6.736;2024-01-10T08:50:58;25.13;;;10.00;;
37535;SDS011;23379;51.554;6.736;2024-01-10T08:53:23;17.58;;;8.65;;
37535;SDS011;23379;51.554;6.736;2024-01-10T08:55:49;16.30;;;9.40;;
37535;SDS011;23379;51.554;6.736;2024-01-10T08:58:15;20.38;;;9.32;;
37535;SDS011;23379;51.554;6.736;2024-01-10T09:00:40;19.67;;;9.85;;
37535;SDS011;23379;51.554;6.736;2024-01-10T09:03:05;21.80;;;9.70;;
37535;SDS011;23379;51.554;6.736;2024-01-10T09:05:32;16.60;;;9.35;;
37535;SDS011;23379;51.554;6.736;2024-01-10T09:07:58;19.92;;;8.45;;
37535;SDS011;23379;51.554;6.736;2024-01-10T09:10:23;19.27;;;8.93;;
37535;SDS011;23379;51.554;6.736;2024-01-10T09:12:49;17.05;;;8.77;;
37535;SDS011;23379;51.554;6.736;2024-01-10T09:15:14;21.33;;;9.13;;
37535;SDS011;23379;51.554;6.736;2024-01-10T09:17:43;17.17;;;8.88;;
37535;SDS011;23379;51.554;6.736;2024-01-10T09:20:10;20.73;;;9.25;;
37535;SDS011;23379;51.554;6.736;2024-01-10T09:22:37;17.23;;;9.73;;
37535;SDS011;23379;51.554;6.736;2024-01-10T09:25:03;17.92;;;8.95;;
37535;SDS011;23379;51.554;6.736;2024-01-10T09:27:31;15.00;;;8.55;;
37535;SDS011;23379;51.554;6.736;2024-01-10T09:29:56;20.67;;;9.90;;
37535;SDS011;23379;51.554;6.736;2024-01-10T09:32:22;21.95;;;10.65;;
37535;SDS011;23379;51.554;6.736;2024-01-10T09:34:47;18.70;;;10.38;;
37535;SDS011;23379;51.554;6.736;2024-01-10T09:37:12;17.38;;;9.40;;
37535;SDS011;23379;51.554;6.736;2024-01-10T09:39:38;20.52;;;10.00;;
37535;SDS011;23379;51.554;6.736;2024-01-10T09:42:03;21.35;;;10.25;;
37535;SDS011;23379;51.554;6.736;2024-01-10T09:44:29;21.42;;;10.57;;
37535;SDS011;23379;51.554;6.736;2024-01-10T09:46:54;16.17;;;9.57;;
37535;SDS011;23379;51.554;6.736;2024-01-10T09:49:20;22.33;;;10.80;;
37535;SDS011;23379;51.554;6.736;2024-01-10T09:51:47;20.83;;;10.52;;
37535;SDS011;23379;51.554;6.736;2024-01-10T09:54:13;24.13;;;11.20;;
37535;SDS011;23379;51.554;6.736;2024-01-10T09:56:41;19.45;;;10.40;;
37535;SDS011;23379;51.554;6.736;2024-01-10T09:59:07;20.45;;;10.32;;
37535;SDS011;23379;51.554;6.736;2024-01-10T10:01:35;20.17;;;10.50;;
37535;SDS011;23379;51.554;6.736;2024-01-10T10:04:06;19.83;;;10.60;;
37535;SDS011;23379;51.554;6.736;2024-01-10T10:06:34;19.13;;;10.30;;
37535;SDS011;23379;51.554;6.736;2024-01-10T10:08:59;26.60;;;9.95;;
37535;SDS011;23379;51.554;6.736;2024-01-10T10:11:25;19.63;;;10.25;;
37535;SDS011;23379;51.554;6.736;2024-01-10T10:13:51;19.67;;;11.02;;
37535;SDS011;23379;51.554;6.736;2024-01-10T10:16:22;22.15;;;11.23;;
37535;SDS011;23379;51.554;6.736;2024-01-10T10:18:49;19.63;;;11.10;;
37535;SDS011;23379;51.554;6.736;2024-01-10T10:21:15;24.63;;;11.63;;
37535;SDS011;23379;51.554;6.736;2024-01-10T10:23:43;18.55;;;10.65;;
37535;SDS011;23379;51.554;6.736;2024-01-10T10:26:23;22.65;;;10.90;;
37535;SDS011;23379;51.554;6.736;2024-01-10T10:28:49;21.42;;;11.35;;
37535;SDS011;23379;51.554;6.736;2024-01-10T10:31:15;18.85;;;10.68;;
37535;SDS011;23379;51.554;6.736;2024-01-10T10:33:42;18.85;;;10.40;;
37535;SDS011;23379;51.554;6.736;2024-01-10T10:36:11;21.88;;;10.73;;
37535;SDS011;23379;51.554;6.736;2024-01-10T10:38:38;22.35;;;10.70;;
37535;SDS011;23379;51.554;6.736;2024-01-10T10:41:07;23.10;;;11.90;;
37535;SDS011;23379;51.554;6.736;2024-01-10T10:43:36;19.70;;;11.07;;
37535;SDS011;23379;51.554;6.736;2024-01-10T10:46:12;22.58;;;10.80;;
37535;SDS011;23379;51.554;6.736;2024-01-10T10:48:37;18.80;;;10.35;;
37535;SDS011;23379;51.554;6.736;2024-01-10T10:51:10;19.85;;;11.50;;
37535;SDS011;23379;51.554;6.736;2024-01-10T10:53:36;25.85;;;11.25;;
37535;SDS011;23379;51.554;6.736;2024-01-10T10:56:04;19.50;;;10.48;;
37535;SDS011;23379;51.554;6.736;2024-01-10T10:58:48;23.63;;;11.07;;
37535;SDS011;23379;51.554;6.736;2024-01-10T11:01:15;22.52;;;10.40;;
37535;SDS011;23379;51.554;6.736;2024-01-10T11:03:42;23.83;;;10.85;;
37535;SDS011;23379;51.554;6.736;2024-01-10T11:06:09;21.08;;;10.50;;
37535;SDS011;23379;51.554;6.736;2024-01-10T11:08:35;22.70;;;10.40;;
37535;SDS011;23379;51.554;6.736;2024-01-10T11:11:04;26.67;;;11.40;;
37535;SDS011;23379;51.554;6.736;2024-01-10T11:16:46;19.58;;;10.75;;
37535;SDS011;23379;51.554;6.736;2024-01-10T11:25:23;22.13;;;10.95;;
37535;SDS011;23379;51.554;6.736;2024-01-10T11:27:52;19.42;;;10.65;;
37535;SDS011;23379;51.554;6.736;2024-01-10T11:30:32;22.90;;;11.52;;
37535;SDS011;23379;51.554;6.736;2024-01-10T11:33:00;18.92;;;10.88;;
37535;SDS011;23379;51.554;6.736;2024-01-10T11:35:27;28.67;;;11.23;;
37535;SDS011;23379;51.554;6.736;2024-01-10T11:37:56;18.23;;;10.48;;
37535;SDS011;23379;51.554;6.736;2024-01-10T11:43:13;29.52;;;16.85;;
37535;SDS011;23379;51.554;6.736;2024-01-10T11:45:49;23.60;;;12.02;;
37535;SDS011;23379;51.554;6.736;2024-01-10T11:48:27;19.92;;;11.65;;
37535;SDS011;23379;51.554;6.736;2024-01-10T11:50:53;23.75;;;11.35;;
37535;SDS011;23379;51.554;6.736;2024-01-10T11:53:38;20.05;;;11.90;;
37535;SDS011;23379;51.554;6.736;2024-01-10T11:56:11;19.17;;;10.63;;
37535;SDS011;23379;51.554;6.736;2024-01-10T11:58:55;22.55;;;11.27;;
37535;SDS011;23379;51.554;6.736;2024-01-10T12:01:26;19.90;;;11.38;;
37535;SDS011;23379;51.554;6.736;2024-01-10T12:03:52;20.70;;;11.57;;
37535;SDS011;23379;51.554;6.736;2024-01-10T12:06:19;23.77;;;12.35;;
37535;SDS011;23379;51.554;6.736;2024-01-10T12:08:46;21.98;;;11.85;;
37535;SDS011;23379;51.554;6.736;2024-01-10T12:11:11;24.08;;;11.82;;
37535;SDS011;23379;51.554;6.736;2024-01-10T12:13:37;20.33;;;11.20;;
37535;SDS011;23379;51.554;6.736;2024-01-10T12:16:02;22.10;;;11.27;;
37535;SDS011;23379;51.554;6.736;2024-01-10T12:18:28;23.13;;;11.90;;
37535;SDS011;23379;51.554;6.736;2024-01-10T12:20:53;22.45;;;11.75;;
37535;SDS011;23379;51.554;6.736;2024-01-10T12:23:19;20.23;;;10.93;;
37535;SDS011;23379;51.554;6.736;2024-01-10T12:25:44;19.27;;;10.38;;
37535;SDS011;23379;51.554;6.736;2024-01-10T12:28:10;21.27;;;10.98;;
37535;SDS011;23379;51.554;6.736;2024-01-10T12:30:40;20.65;;;10.98;;
37535;SDS011;23379;51.554;6.736;2024-01-10T12:33:06;22.83;;;12.05;;
37535;SDS011;23379;51.554;6.736;2024-01-10T12:35:34;19.10;;;11.70;;
37535;SDS011;23379;51.554;6.736;2024-01-10T12:37:59;28.60;;;13.13;;
37535;SDS011;23379;51.554;6.736;2024-01-10T12:40:24;21.17;;;11.85;;
37535;SDS011;23379;51.554;6.736;2024-01-10T12:43:01;25.63;;;13.75;;
37535;SDS011;23379;51.554;6.736;2024-01-10T12:45:28;28.52;;;12.77;;
37535;SDS011;23379;51.554;6.736;2024-01-10T12:47:53;21.15;;;12.00;;
37535;SDS011;23379;51.554;6.736;2024-01-10T12:50:19;23.83;;;11.75;;
37535;SDS011;23379;51.554;6.736;2024-01-10T12:52:44;20.08;;;11.48;;
37535;SDS011;23379;51.554;6.736;2024-01-10T12:55:10;25.52;;;14.23;;
37535;SDS011;23379;51.554;6.736;2024-01-10T12:57:36;21.48;;;12.02;;
37535;SDS011;23379;51.554;6.736;2024-01-10T13:00:01;21.98;;;11.20;;
37535;SDS011;23379;51.554;6.736;2024-01-10T13:02:33;21.35;;;11.23;;
37535;SDS011;23379;51.554;6.736;2024-01-10T13:05:02;23.52;;;12.93;;
37535;SDS011;23379;51.554;6.736;2024-01-10T13:07:36;24.67;;;12.98;;
37535;SDS011;23379;51.554;6.736;2024-01-10T13:10:02;24.50;;;12.88;;
37535;SDS011;23379;51.554;6.736;2024-01-10T13:12:27;21.35;;;11.05;;
37535;SDS011;23379;51.554;6.736;2024-01-10T13:14:53;22.92;;;11.77;;
37535;SDS011;23379;51.554;6.736;2024-01-10T13:17:18;22.20;;;11.10;;
37535;SDS011;23379;51.554;6.736;2024-01-10T13:19:45;22.80;;;12.20;;
37535;SDS011;23379;51.554;6.736;2024-01-10T13:22:13;22.58;;;11.98;;
37535;SDS011;23379;51.554;6.736;2024-01-10T13:24:40;25.10;;;12.30;;
37535;SDS011;23379;51.554;6.736;2024-01-10T13:27:07;20.42;;;10.85;;
37535;SDS011;23379;51.554;6.736;2024-01-10T13:29:34;20.63;;;11.35;;
37535;SDS011;23379;51.554;6.736;2024-01-10T13:32:02;21.13;;;11.23;;
37535;SDS011;23379;51.554;6.736;2024-01-10T13:34:31;25.08;;;11.82;;
37535;SDS011;23379;51.554;6.736;2024-01-10T13:36:57;22.85;;;12.20;;
37535;SDS011;23379;51.554;6.736;2024-01-10T13:39:23;26.23;;;11.60;;
37535;SDS011;23379;51.554;6.736;2024-01-10T13:41:48;25.77;;;12.18;;
37535;SDS011;23379;51.554;6.736;2024-01-10T13:44:14;26.90;;;14.25;;
37535;SDS011;23379;51.554;6.736;2024-01-10T13:46:39;22.42;;;12.73;;
37535;SDS011;23379;51.554;6.736;2024-01-10T13:49:04;22.83;;;11.60;;
37535;SDS011;23379;51.554;6.736;2024-01-10T13:51:30;22.67;;;12.00;;
37535;SDS011;23379;51.554;6.736;2024-01-10T13:53:57;21.17;;;11.43;;
37535;SDS011;23379;51.554;6.736;2024-01-10T13:56:22;24.55;;;11.60;;
37535;SDS011;23379;51.554;6.736;2024-01-10T13:58:48;22.13;;;11.45;;
37535;SDS011;23379;51.554;6.736;2024-01-10T14:01:13;28.80;;;14.15;;
37535;SDS011;23379;51.554;6.736;2024-01-10T14:03:39;30.65;;;17.13;;
37535;SDS011;23379;51.554;6.736;2024-01-10T14:06:04;25.75;;;13.23;;
37535;SDS011;23379;51.554;6.736;2024-01-10T14:08:30;41.03;;;19.90;;
37535;SDS011;23379;51.554;6.736;2024-01-10T14:10:56;30.80;;;16.35;;
37535;SDS011;23379;51.554;6.736;2024-01-10T14:13:21;23.85;;;12.07;;
37535;SDS011;23379;51.554;6.736;2024-01-10T14:15:48;27.67;;;12.82;;
37535;SDS011;23379;51.554;6.736;2024-01-10T14:18:13;28.27;;;13.20;;
37535;SDS011;23379;51.554;6.736;2024-01-10T14:20:39;22.63;;;11.85;;
37535;SDS011;23379;51.554;6.736;2024-01-10T14:23:04;24.88;;;12.32;;
37535;SDS011;23379;51.554;6.736;2024-01-10T14:25:30;52.40;;;19.95;;
37535;SDS011;23379;51.554;6.736;2024-01-10T14:27:56;34.30;;;13.30;;
37535;SDS011;23379;51.554;6.736;2024-01-10T14:30:23;138.80;;;34.55;;
37535;SDS011;23379;51.554;6.736;2024-01-10T14:32:50;25.73;;;14.13;;
37535;SDS011;23379;51.554;6.736;2024-01-10T14:35:15;126.50;;;35.88;;
37535;SDS011;23379;51.554;6.736;2024-01-10T14:37:41;66.47;;;25.33;;